D/T METAR WX W/DIR W/SPE G/SPE TEMP DEWP
27/05/19 07:50 EGXP 270650Z AUTO 26018KT 9999 // BKN050/// 11/08 Q1007 W (260°) 20.7mph 11°C 8°C
27/05/19 06:50 EGXP 270550Z AUTO 24015KT 9999 // SCT050/// 11/08 Q1007 WSW (240°) 17.3mph 11°C 8°C
27/05/19 05:50 EGXP 270450Z AUTO 25014KT 9999 // BKN050/// SCT240/// 11/08 Q1007 WSW (250°) 16.1mph 11°C 8°C
27/05/19 04:50 EGXP 270350Z AUTO 26014KT 9999 // OVC230/// 10/08 Q1007 W (260°) 16.1mph 10°C 8°C
27/05/19 03:50 EGXP 270250Z AUTO 26013KT 9999 // SCT240/// 10/08 Q1007 W (260°) 15.0mph 10°C 8°C
27/05/19 02:50 EGXP 270150Z AUTO 25012KT 9999 // FEW050/// 09/07 Q1008 WSW (250°) 13.8mph 9°C 7°C
27/05/19 01:50 EGXP 270050Z AUTO 24009KT 9999 // NCD 09/07 Q1008 WSW (240°) 10.4mph 9°C 7°C
27/05/19 00:50 EGXP 262350Z AUTO 25011KT 9999 // NCD 09/07 Q1009 WSW (250°) 12.7mph 9°C 7°C
26/05/19 23:50 EGXP 262250Z AUTO 24010KT 9999 // NCD 09/06 Q1009 WSW (240°) 11.5mph 9°C 6°C
26/05/19 22:50 EGXP 262150Z AUTO 25008KT 9999 // NCD 10/07 Q1009 WSW (250°) 9.2mph 10°C 7°C
26/05/19 21:50 EGXP 262050Z AUTO 27009KT 9999 // NCD 11/07 Q1009 W (270°) 10.4mph 11°C 7°C
26/05/19 20:50 EGXP 261950Z AUTO 29012KT 9999 // NCD 13/07 Q1009 WNW (290°) 13.8mph 13°C 7°C
26/05/19 19:50 EGXP 261850Z AUTO 29018KT 9999 // FEW050/// 15/07 Q1009 WNW (290°) 20.7mph 15°C 7°C
26/05/19 18:50 EGXP 261750Z AUTO 30019KT 9999 // SCT043/// 16/08 Q1009 WNW (300°) 21.9mph 16°C 8°C
26/05/19 17:50 EGXP 261650Z AUTO 29019KT 9999 // BKN042/// 16/07 Q1008 WNW (290°) 21.9mph 16°C 7°C
26/05/19 16:50 EGXP 261550Z AUTO 29022KT 9999 // FEW031/// 17/07 Q1008 WNW (290°) 25.3mph 17°C 7°C
26/05/19 15:50 EGXP 261450Z AUTO 29021KT 9999 // NCD 18/11 Q1008 WNW (290°) 24.2mph 18°C 11°C
26/05/19 14:50 EGXP 261350Z AUTO 28017KT 9999 // FEW026/// SCT050/// 18/12 Q1008 W (280°) 19.6mph 18°C 12°C
26/05/19 13:50 EGXP 261250Z AUTO 27015KT 9999 // SCT015/// BKN042/// 17/14 Q1008 W (270°) 17.3mph 17°C 14°C
26/05/19 12:50 EGXP 261150Z AUTO 26015KT 9999 // BKN021/// BKN029/// 18/15 Q1008 W (260°) 17.3mph 18°C 15°C
26/05/19 11:50 EGXP 261050Z AUTO 25014KT 9999 // BKN019/// 18/14 Q1008 WSW (250°) 16.1mph 18°C 14°C
26/05/19 10:50 EGXP 260950Z AUTO 25017KT 9999 // BKN018/// 17/15 Q1009 WSW (250°) 19.6mph 17°C 15°C
26/05/19 09:50 EGXP 260850Z AUTO 25014KT 9999 // SCT019/// BKN070/// 17/14 Q1009 WSW (250°) 16.1mph 17°C 14°C
26/05/19 08:50 EGXP 260750Z AUTO 24014KT 9999 // FEW019/// BKN050/// 16/14 Q1009 WSW (240°) 16.1mph 16°C 14°C
26/05/19 07:50 EGXP 260650Z AUTO 24013KT 9999 // BKN050/// 15/14 Q1009 WSW (240°) 15.0mph 15°C 14°C
26/05/19 06:50 EGXP 260550Z AUTO 23011KT 9999 // FEW029/// SCT038/// BKN050/// 14/13 Q1010 SW (230°) 12.7mph 14°C 13°C
26/05/19 05:50 EGXP 260450Z AUTO 24012KT 9999 // BKN070/// 14/12 Q1011 WSW (240°) 13.8mph 14°C 12°C
26/05/19 04:50 EGXP 260350Z AUTO 23009KT 9999 // SCT050/// 13/12 Q1011 SW (230°) 10.4mph 13°C 12°C
26/05/19 03:50 EGXP 260250Z AUTO 23009KT 9999 // BKN060/// SCT180/// 13/12 Q1012 SW (230°) 10.4mph 13°C 12°C
26/05/19 02:50 EGXP 260150Z AUTO 23009KT 9999 // OVC060/// 14/12 Q1013 SW (230°) 10.4mph 14°C 12°C
26/05/19 01:50 EGXP 260050Z AUTO 22009KT 9999 // OVC060/// 14/12 Q1013 SW (220°) 10.4mph 14°C 12°C
26/05/19 00:50 EGXP 252350Z AUTO 23009KT 9999 // OVC060/// 15/12 Q1014 SW (230°) 10.4mph 15°C 12°C
25/05/19 23:50 EGXP 252250Z AUTO 24007KT 9999 // FEW021/// SCT031/// BKN060/// 14/12 Q1015 WSW (240°) 8.1mph 14°C 12°C
25/05/19 22:50 EGXP 252150Z AUTO 24007KT 9999 // BKN021/// 15/13 Q1015 WSW (240°) 8.1mph 15°C 13°C
25/05/19 21:50 EGXP 252050Z AUTO 24006KT 9999 // SCT034/// BKN050/// 14/13 Q1015 WSW (240°) 6.9mph 14°C 13°C
25/05/19 20:50 EGXP 251950Z AUTO 27004KT 9999 // FEW040/// BKN045/// 14/13 Q1015 W (270°) 4.6mph 14°C 13°C
25/05/19 19:50 EGXP 251850Z AUTO 30007KT 9999 // OVC049/// 15/11 Q1016 WNW (300°) 8.1mph 15°C 11°C
25/05/19 18:50 EGXP 251750Z AUTO 31007KT 9999 // OVC070/// 17/10 Q1016 NW (310°) 8.1mph 17°C 10°C
25/05/19 17:50 EGXP 251650Z AUTO 29012KT 9999 // BKN080/// SCT140/// 18/08 Q1016 WNW (290°) 13.8mph 18°C 8°C
25/05/19 16:50 EGXP 251550Z AUTO 28012KT 9999 // BKN130/// 19/09 Q1016 W (280°) 13.8mph 19°C 9°C
25/05/19 15:50 EGXP 251450Z AUTO 27003KT 9999 // BKN140/// 20/08 Q1016 W (270°) 3.5mph 20°C 8°C
25/05/19 14:50 EGXP 251350Z AUTO 29005KT 9999 // BKN160/// 19/07 Q1016 WNW (290°) 5.8mph 19°C 7°C
25/05/19 13:50 EGXP 251250Z AUTO 30006KT 9999 // FEW170/// 19/08 Q1017 WNW (300°) 6.9mph 19°C 8°C
25/05/19 12:50 EGXP 251150Z AUTO 32007KT 9999 // SCT150/// BKN220/// 19/08 Q1017 NW (320°) 8.1mph 19°C 8°C
25/05/19 11:50 EGXP 251050Z AUTO 33007KT 9999 // FEW240/// 18/09 Q1017 NNW (330°) 8.1mph 18°C 9°C
25/05/19 10:50 EGXP 250950Z AUTO 32006KT 9999 // NCD 16/09 Q1018 NW (320°) 6.9mph 16°C 9°C
25/05/19 09:50 EGXP 250850Z AUTO 32007KT 9999 // NCD 15/08 Q1018 NW (320°) 8.1mph 15°C 8°C
25/05/19 08:50 EGXP 250750Z AUTO 32008KT 9999 // NCD 14/08 Q1018 NW (320°) 9.2mph 14°C 8°C